createdAt,value
2019-01-29T00:01:35.494Z,97937.86
2019-01-29T00:04:05.610Z,97943.25
2019-01-29T00:06:36.533Z,97942.41
2019-01-29T00:09:09.427Z,97939.78
2019-01-29T00:11:39.603Z,97938.53
2019-01-29T00:14:09.173Z,97943.98
2019-01-29T00:16:38.324Z,97948.81
2019-01-29T00:19:07.482Z,97954.95
2019-01-29T00:21:36.646Z,97959.56
2019-01-29T00:24:06.984Z,97963.41
2019-01-29T00:26:36.417Z,97960.64
2019-01-29T00:29:05.613Z,97968.23
2019-01-29T00:31:35.161Z,97971.66
2019-01-29T00:34:07.471Z,97977.83
2019-01-29T00:36:36.909Z,97974.00
2019-01-29T00:39:08.771Z,97972.97
2019-01-29T00:41:37.939Z,97981.80
2019-01-29T00:44:07.399Z,97986.47
2019-01-29T00:46:36.890Z,97988.90
2019-01-29T00:49:06.365Z,97985.44
2019-01-29T00:51:35.518Z,97979.23
2019-01-29T00:54:05.398Z,97988.90
2019-01-29T00:56:34.810Z,97984.98
2019-01-29T00:59:04.471Z,97989.55
2019-01-29T01:01:33.648Z,97992.04
2019-01-29T01:04:03.168Z,97989.66
2019-01-29T01:06:32.606Z,97996.41
2019-01-29T01:09:01.779Z,98005.23
2019-01-29T01:11:31.198Z,98004.38
2019-01-29T01:14:00.685Z,98008.83
2019-01-29T01:16:30.393Z,98010.45
2019-01-29T01:18:59.847Z,98010.63
2019-01-29T01:21:28.998Z,98014.57
2019-01-29T01:23:58.657Z,98017.52
2019-01-29T01:26:28.655Z,98030.21
2019-01-29T01:28:58.201Z,98031.64
2019-01-29T01:31:27.704Z,98040.38
2019-01-29T01:33:57.161Z,98048.36
2019-01-29T01:36:26.462Z,98045.03
2019-01-29T01:38:55.880Z,98048.02
2019-01-29T01:41:25.401Z,98057.28
2019-01-29T01:43:54.572Z,98057.73
2019-01-29T01:46:24.084Z,98055.77
2019-01-29T01:48:53.247Z,98060.03
2019-01-29T01:51:22.798Z,98062.96
2019-01-29T01:53:53.038Z,98070.39
2019-01-29T01:56:22.903Z,98066.55
2019-01-29T01:58:52.047Z,98064.33
2019-01-29T02:01:21.218Z,98065.09
2019-01-29T02:03:50.656Z,98069.47
2019-01-29T02:06:19.817Z,98077.03
2019-01-29T02:08:49.309Z,98076.19
2019-01-29T02:11:19.282Z,98080.03
2019-01-29T02:13:48.887Z,98077.89
2019-01-29T02:16:18.082Z,98076.23
2019-01-29T02:18:47.534Z,98080.88
2019-01-29T02:21:16.825Z,98081.45
2019-01-29T02:23:45.981Z,98081.39
2019-01-29T02:26:15.425Z,98083.99
2019-01-29T02:28:44.593Z,98082.77
2019-01-29T02:31:13.775Z,98087.13
2019-01-29T02:33:43.627Z,98090.72
2019-01-29T02:36:13.678Z,98091.11
2019-01-29T02:38:42.829Z,98097.06
2019-01-29T02:41:12.329Z,98095.24
2019-01-29T02:43:41.951Z,98088.41
2019-01-29T02:46:11.188Z,98093.01
2019-01-29T02:48:40.683Z,98100.28
2019-01-29T02:51:10.123Z,98100.97
2019-01-29T02:53:39.292Z,98102.58
2019-01-29T02:56:08.769Z,98103.72
2019-01-29T02:58:38.717Z,98106.16
2019-01-29T03:01:08.171Z,98105.71
2019-01-29T03:03:37.328Z,98118.50
2019-01-29T03:06:07.433Z,98120.83
2019-01-29T03:08:36.612Z,98122.81
2019-01-29T03:11:07.069Z,98119.61
2019-01-29T03:13:36.222Z,98122.88
2019-01-29T03:16:06.036Z,98129.95
2019-01-29T03:18:35.872Z,98128.07
2019-01-29T03:21:05.453Z,98129.61
2019-01-29T03:23:34.603Z,98124.46
2019-01-29T03:26:03.795Z,98133.52
2019-01-29T03:28:32.944Z,98126.84
2019-01-29T03:31:03.295Z,98135.81
2019-01-29T03:33:32.448Z,98144.24
2019-01-29T03:36:02.566Z,98135.23
2019-01-29T03:38:31.997Z,98138.16
2019-01-29T03:41:01.161Z,98141.19
2019-01-29T03:43:30.601Z,98145.69
2019-01-29T03:45:59.767Z,98151.64
2019-01-29T03:48:29.263Z,98152.42
2019-01-29T03:50:59.562Z,98147.20
2019-01-29T03:53:37.785Z,98158.49
2019-01-29T03:56:00.683Z,98157.05
2019-01-29T03:58:30.652Z,98151.97
2019-01-29T04:01:00.374Z,98149.69
2019-01-29T04:03:31.342Z,98153.07
2019-01-29T04:06:00.477Z,98163.11
2019-01-29T04:08:29.919Z,98171.66
2019-01-29T04:10:59.620Z,98174.91
2019-01-29T04:13:28.818Z,98173.36
2019-01-29T04:15:58.234Z,98179.59
2019-01-29T04:18:27.411Z,98173.44
2019-01-29T04:20:56.565Z,98176.21
2019-01-29T04:23:26.296Z,98173.80
2019-01-29T04:25:55.730Z,98174.14
2019-01-29T04:28:25.680Z,98172.77
2019-01-29T04:30:55.618Z,98176.67
2019-01-29T04:33:25.588Z,98173.82
2019-01-29T04:35:54.742Z,98176.14
2019-01-29T04:38:23.920Z,98184.25
2019-01-29T04:40:54.184Z,98180.97
2019-01-29T04:43:24.542Z,98176.52
2019-01-29T04:45:54.045Z,98184.00
2019-01-29T04:48:23.829Z,98179.37
2019-01-29T04:50:54.012Z,98182.53
2019-01-29T04:53:23.205Z,98182.89
2019-01-29T04:55:52.692Z,98177.45
2019-01-29T04:58:22.168Z,98177.98
2019-01-29T05:00:52.681Z,98179.08
2019-01-29T05:03:21.862Z,98181.63
2019-01-29T05:05:51.012Z,98186.41
2019-01-29T05:08:21.368Z,98190.25
2019-01-29T05:10:51.276Z,98188.11
2019-01-29T05:13:20.708Z,98185.80
2019-01-29T05:15:50.146Z,98185.59
2019-01-29T05:18:19.310Z,98185.38
2019-01-29T05:20:48.510Z,98192.67
2019-01-29T05:23:18.474Z,98189.16
2019-01-29T05:25:48.270Z,98186.22
2019-01-29T05:28:17.419Z,98193.77
2019-01-29T05:30:47.457Z,98194.23
2019-01-29T05:33:16.886Z,98198.27
2019-01-29T05:35:46.742Z,98202.92
2019-01-29T05:38:15.912Z,98209.08
2019-01-29T05:40:45.091Z,98204.42
2019-01-29T05:43:14.506Z,98199.89
2019-01-29T05:45:43.957Z,98209.47
2019-01-29T05:48:13.643Z,98212.14
2019-01-29T05:50:42.859Z,98206.89
2019-01-29T05:53:12.310Z,98209.69
2019-01-29T05:55:43.053Z,98209.89
2019-01-29T05:58:12.988Z,98213.80
2019-01-29T06:00:42.348Z,98220.24
2019-01-29T06:03:11.755Z,98229.01
2019-01-29T06:05:40.935Z,98224.94
2019-01-29T06:08:10.863Z,98224.38
2019-01-29T06:10:40.048Z,98215.95
2019-01-29T06:13:09.298Z,98221.09
2019-01-29T06:15:38.478Z,98225.23
2019-01-29T06:18:07.948Z,98227.44
2019-01-29T06:20:37.162Z,98230.38
2019-01-29T06:23:06.898Z,98225.87
2019-01-29T06:25:36.559Z,98227.31
2019-01-29T06:28:05.744Z,98231.28
2019-01-29T06:30:35.218Z,98234.84
2019-01-29T06:33:04.386Z,98236.01
2019-01-29T06:35:33.833Z,98224.70
2019-01-29T06:38:03.277Z,98237.86
2019-01-29T06:40:32.427Z,98236.33
2019-01-29T06:43:01.606Z,98243.36
2019-01-29T06:45:30.785Z,98236.17
2019-01-29T06:48:00.653Z,98236.28
2019-01-29T06:50:29.824Z,98241.28
2019-01-29T06:52:59.285Z,98250.48
2019-01-29T06:55:28.712Z,98242.12
2019-01-29T06:57:58.251Z,98245.44
2019-01-29T07:00:31.544Z,98255.58
2019-01-29T07:03:02.099Z,98260.41
2019-01-29T07:05:31.563Z,98261.89
2019-01-29T07:08:00.770Z,98260.89
2019-01-29T07:10:30.037Z,98254.34
2019-01-29T07:12:59.580Z,98262.22
2019-01-29T07:15:47.270Z,98255.68
2019-01-29T07:18:35.530Z,98255.77
2019-01-29T07:21:07.622Z,98265.96
2019-01-29T07:23:36.843Z,98263.23
2019-01-29T07:26:06.230Z,98261.48
2019-01-29T07:28:35.654Z,98263.11
2019-01-29T07:31:05.566Z,98271.22
2019-01-29T07:33:34.767Z,98263.22
2019-01-29T07:36:04.748Z,98263.97
2019-01-29T07:38:34.739Z,98263.97
2019-01-29T07:41:05.095Z,98267.48
2019-01-29T07:43:34.294Z,98270.52
2019-01-29T07:46:04.568Z,98271.42
2019-01-29T07:48:33.783Z,98277.67
2019-01-29T07:51:03.232Z,98285.27
2019-01-29T07:53:32.760Z,98284.81
2019-01-29T07:56:03.220Z,98286.11
2019-01-29T07:58:33.188Z,98290.48
2019-01-29T08:01:04.598Z,98286.20
2019-01-29T08:03:38.274Z,98290.95
2019-01-29T08:06:05.979Z,98289.38
2019-01-29T08:08:38.408Z,98285.92
2019-01-29T08:11:09.260Z,98289.44
2019-01-29T08:13:39.346Z,98294.43
2019-01-29T08:16:08.519Z,98293.61
2019-01-29T08:18:37.781Z,98297.62
2019-01-29T08:21:07.264Z,98296.97
2019-01-29T08:23:36.505Z,98299.78
2019-01-29T08:26:05.779Z,98303.41
2019-01-29T08:28:35.066Z,98309.23
2019-01-29T08:31:04.522Z,98314.55
2019-01-29T08:33:33.772Z,98304.39
2019-01-29T08:36:03.553Z,98312.38
2019-01-29T08:38:32.901Z,98306.31
2019-01-29T08:41:02.327Z,98306.70
2019-01-29T08:43:31.493Z,98312.70
2019-01-29T08:46:00.947Z,98304.59
2019-01-29T08:48:30.155Z,98302.39
2019-01-29T08:50:59.449Z,98307.63
2019-01-29T08:53:29.452Z,98309.83
2019-01-29T08:55:59.496Z,98309.21
2019-01-29T08:58:30.432Z,98315.27
2019-01-29T09:01:00.357Z,98308.72
2019-01-29T09:03:29.510Z,98306.59
2019-01-29T09:05:58.801Z,98303.83
2019-01-29T09:08:27.994Z,98303.92
2019-01-29T09:10:58.284Z,98298.77
2019-01-29T09:13:28.846Z,98303.38
2019-01-29T09:15:58.028Z,98298.16
2019-01-29T09:18:27.186Z,98295.27
2019-01-29T09:20:57.105Z,98295.72
2019-01-29T09:23:29.389Z,98289.27
2019-01-29T09:25:59.179Z,98284.80
2019-01-29T09:28:28.387Z,98284.85
2019-01-29T09:30:57.547Z,98275.02
2019-01-29T09:33:26.766Z,98272.31
2019-01-29T09:35:55.948Z,98264.26
2019-01-29T09:38:25.928Z,98269.80
2019-01-29T09:40:55.370Z,98266.66
2019-01-29T09:43:24.847Z,98269.86
2019-01-29T09:45:54.045Z,98268.30
2019-01-29T09:48:24.530Z,98266.70
2019-01-29T09:50:53.824Z,98271.14
2019-01-29T09:53:22.964Z,98268.80
2019-01-29T09:55:52.176Z,98265.41
2019-01-29T09:58:21.528Z,98267.17
2019-01-29T10:00:50.686Z,98270.41
2019-01-29T10:03:19.837Z,98273.34
2019-01-29T10:05:49.019Z,98272.95
2019-01-29T10:08:18.197Z,98277.00
2019-01-29T10:10:47.196Z,98274.01
2019-01-29T10:13:16.345Z,98269.30
2019-01-29T10:15:45.875Z,98267.89
2019-01-29T10:18:15.363Z,98264.61
2019-01-29T10:20:44.538Z,98271.27
2019-01-29T10:23:14.539Z,98264.27
2019-01-29T10:25:44.486Z,98264.94
2019-01-29T10:28:13.718Z,98262.98
2019-01-29T10:30:43.040Z,98260.70
2019-01-29T10:33:12.456Z,98258.09
2019-01-29T10:35:41.690Z,98257.55
2019-01-29T10:38:10.947Z,98247.93
2019-01-29T10:40:40.917Z,98244.52
2019-01-29T10:43:10.053Z,98242.81
2019-01-29T10:45:39.213Z,98240.55
2019-01-29T10:48:08.390Z,98243.10
2019-01-29T10:50:37.787Z,98237.95
2019-01-29T10:53:07.059Z,98230.68
2019-01-29T10:55:36.216Z,98222.22
2019-01-29T10:58:05.891Z,98220.83
2019-01-29T11:00:40.247Z,98209.69
2019-01-29T11:03:10.390Z,98202.86
2019-01-29T11:05:39.542Z,98194.03
2019-01-29T11:08:08.729Z,98196.11
2019-01-29T11:10:39.090Z,98194.11
2019-01-29T11:13:08.271Z,98187.89
2019-01-29T11:15:39.730Z,98186.24
2019-01-29T11:18:12.063Z,98170.58
2019-01-29T11:20:41.399Z,98174.38
2019-01-29T11:23:11.674Z,98164.71
2019-01-29T11:25:40.821Z,98163.45
2019-01-29T11:28:11.616Z,98154.56
2019-01-29T11:30:42.744Z,98149.34
2019-01-29T11:33:12.480Z,98143.27
2019-01-29T11:35:41.629Z,98140.09
2019-01-29T11:38:11.208Z,98135.33
2019-01-29T11:40:40.751Z,98131.54
2019-01-29T11:43:11.538Z,98126.25
2019-01-29T11:45:44.539Z,98120.40
2019-01-29T11:48:13.724Z,98129.09
2019-01-29T11:50:42.931Z,98116.64
2019-01-29T11:53:12.340Z,98111.87
2019-01-29T11:55:43.968Z,98108.84
2019-01-29T11:58:13.422Z,98101.07
2019-01-29T12:00:47.513Z,98103.30
2019-01-29T12:03:17.639Z,98097.40
2019-01-29T12:05:47.937Z,98096.55
2019-01-29T12:08:17.340Z,98092.07
2019-01-29T12:10:46.606Z,98086.47
2019-01-29T12:13:16.583Z,98081.88
2019-01-29T12:15:45.752Z,98074.53
2019-01-29T12:18:15.230Z,98074.36
2019-01-29T12:20:44.694Z,98078.63
2019-01-29T12:23:14.661Z,98071.84
2019-01-29T12:25:44.101Z,98071.92
2019-01-29T12:28:13.278Z,98062.30
2019-01-29T12:30:42.727Z,98064.36
2019-01-29T12:33:12.354Z,98058.38
2019-01-29T12:35:41.766Z,98061.47
2019-01-29T12:38:11.286Z,98058.63
2019-01-29T12:40:40.984Z,98055.93
2019-01-29T12:43:11.230Z,98047.78
2019-01-29T12:45:40.393Z,98052.00
2019-01-29T12:48:10.362Z,98045.02
2019-01-29T12:50:43.476Z,98043.78
2019-01-29T12:53:14.700Z,98044.55
2019-01-29T12:55:44.427Z,98043.12
2019-01-29T12:58:13.610Z,98036.58
2019-01-29T13:00:45.766Z,98038.30
2019-01-29T13:03:16.140Z,98034.09
2019-01-29T13:05:45.287Z,98028.03
2019-01-29T13:08:14.564Z,98029.20
2019-01-29T13:10:44.004Z,98015.97
2019-01-29T13:13:15.872Z,98017.65
2019-01-29T13:15:45.708Z,98020.56
2019-01-29T13:18:15.653Z,98025.50
2019-01-29T13:20:45.516Z,98025.58
2019-01-29T13:23:15.020Z,98020.14
2019-01-29T13:25:44.502Z,98020.19
2019-01-29T13:28:14.418Z,98024.48
2019-01-29T13:30:44.399Z,98021.58
2019-01-29T13:33:15.321Z,98015.20
2019-01-29T13:35:44.905Z,98011.13
2019-01-29T13:38:14.097Z,98007.90
2019-01-29T13:40:43.391Z,98019.48
2019-01-29T13:43:12.816Z,98006.81
2019-01-29T13:45:43.209Z,98016.28
2019-01-29T13:48:12.713Z,98011.59
2019-01-29T13:50:55.765Z,98007.42
2019-01-29T13:53:25.197Z,98015.02
2019-01-29T13:55:54.388Z,98002.95
2019-01-29T13:58:25.549Z,97998.67
2019-01-29T14:00:56.328Z,97996.50
2019-01-29T14:03:26.273Z,97993.06
2019-01-29T14:05:55.772Z,97988.61
2019-01-29T14:08:25.179Z,97981.68
2019-01-29T14:10:54.367Z,97975.09
2019-01-29T14:13:23.534Z,97966.98
2019-01-29T14:15:54.893Z,97971.53
2019-01-29T14:18:27.217Z,97968.48
2019-01-29T14:20:57.021Z,97970.84
2019-01-29T14:23:26.457Z,97965.71
2019-01-29T14:25:55.932Z,97962.94
2019-01-29T14:28:25.098Z,97962.77
2019-01-29T14:30:54.532Z,97961.08
2019-01-29T14:33:23.715Z,97964.47
2019-01-29T14:35:53.165Z,97962.86
2019-01-29T14:38:59.708Z,97955.11
2019-01-29T14:41:28.912Z,97957.06
2019-01-29T14:43:59.838Z,97956.92
2019-01-29T14:46:29.035Z,97950.65
2019-01-29T14:48:59.245Z,97948.31
2019-01-29T14:51:29.262Z,97947.10
2019-01-29T14:53:59.248Z,97942.18
2019-01-29T14:56:28.532Z,97946.94
2019-01-29T14:58:58.031Z,97938.51
2019-01-29T15:01:27.809Z,97934.59
2019-01-29T15:03:56.950Z,97925.30
2019-01-29T15:06:32.578Z,97932.14
2019-01-29T15:08:59.280Z,97931.97
2019-01-29T15:11:32.791Z,97933.28
2019-01-29T15:14:02.448Z,97921.70
2019-01-29T15:17:03.106Z,97921.91
2019-01-29T15:19:33.615Z,97922.98
2019-01-29T15:22:04.366Z,97922.06
2019-01-29T15:24:33.755Z,97915.63
2019-01-29T15:27:05.870Z,97911.77
2019-01-29T15:29:33.910Z,97905.48
2019-01-29T15:32:03.264Z,97906.17
2019-01-29T15:34:35.869Z,97906.80
2019-01-29T15:37:06.458Z,97899.43
2019-01-29T15:39:35.764Z,97894.97
2019-01-29T15:42:04.937Z,97898.42
2019-01-29T15:44:34.133Z,97891.43
2019-01-29T15:47:03.310Z,97891.42
2019-01-29T15:49:34.769Z,97892.66
2019-01-29T15:52:05.651Z,97885.60
2019-01-29T15:54:37.000Z,97882.66
2019-01-29T15:57:13.840Z,97879.54
2019-01-29T15:59:42.756Z,97878.70
2019-01-29T16:02:10.629Z,97877.30
2019-01-29T16:04:39.831Z,97873.69
2019-01-29T16:07:08.977Z,97875.29
2019-01-29T16:09:38.149Z,97870.70
2019-01-29T16:12:07.383Z,97868.39
2019-01-29T16:14:36.894Z,97866.87
2019-01-29T16:17:06.056Z,97862.41
2019-01-29T16:19:35.240Z,97852.56
2019-01-29T16:22:04.912Z,97853.19
2019-01-29T16:24:34.890Z,97853.73
2019-01-29T16:27:07.009Z,97847.51
2019-01-29T16:29:34.949Z,97849.36
2019-01-29T16:32:04.312Z,97843.05
2019-01-29T16:34:33.501Z,97840.22
2019-01-29T16:37:03.417Z,97836.77
2019-01-29T16:39:32.847Z,97837.06
2019-01-29T16:42:02.008Z,97837.83
2019-01-29T16:44:33.495Z,97830.63
2019-01-29T16:47:03.308Z,97827.47
2019-01-29T16:49:32.775Z,97825.40
2019-01-29T16:52:02.246Z,97818.96
2019-01-29T16:54:31.578Z,97817.48
2019-01-29T16:57:00.746Z,97816.48
2019-01-29T16:59:29.964Z,97814.96
2019-01-29T17:01:59.148Z,97808.44
2019-01-29T17:04:28.929Z,97808.14
2019-01-29T17:06:59.010Z,97807.97
2019-01-29T17:09:28.177Z,97801.53
2019-01-29T17:11:57.394Z,97802.29
2019-01-29T17:14:29.338Z,97794.38
2019-01-29T17:17:00.943Z,97796.52
2019-01-29T17:19:30.483Z,97795.30
2019-01-29T17:22:00.914Z,97791.17
2019-01-29T17:24:30.716Z,97787.94
2019-01-29T17:27:00.241Z,97788.19
2019-01-29T17:29:30.296Z,97785.41
2019-01-29T17:32:00.417Z,97783.94
2019-01-29T17:34:29.990Z,97780.94
2019-01-29T17:36:59.246Z,97773.03
2019-01-29T17:39:28.467Z,97770.43
2019-01-29T17:41:57.665Z,97765.83
2019-01-29T17:44:27.110Z,97760.69
2019-01-29T17:46:56.477Z,97756.31
2019-01-29T17:49:27.517Z,97751.19
2019-01-29T17:51:56.726Z,97748.03
2019-01-29T17:54:26.470Z,97744.42
2019-01-29T17:56:55.678Z,97741.97
2019-01-29T17:59:24.849Z,97735.45
2019-01-29T18:01:54.285Z,97726.41
2019-01-29T18:04:23.449Z,97727.25
2019-01-29T18:06:52.696Z,97722.28
2019-01-29T18:09:21.987Z,97712.14
2019-01-29T18:11:56.967Z,97712.91
2019-01-29T18:14:27.399Z,97707.69
2019-01-29T18:16:57.652Z,97709.78
2019-01-29T18:19:28.498Z,97700.57
2019-01-29T18:21:58.515Z,97693.58
2019-01-29T18:24:27.720Z,97689.67
2019-01-29T18:26:57.133Z,97691.73
2019-01-29T18:29:26.980Z,97680.77
2019-01-29T18:31:57.300Z,97678.95
2019-01-29T18:34:27.975Z,97675.42
2019-01-29T18:36:57.301Z,97674.49
2019-01-29T18:39:28.190Z,97663.22
2019-01-29T18:41:57.736Z,97664.82
2019-01-29T18:44:30.528Z,97669.35
2019-01-29T18:47:00.223Z,97663.52
2019-01-29T18:49:30.338Z,97662.20
2019-01-29T18:51:59.542Z,97660.77
2019-01-29T18:54:29.074Z,97656.61
2019-01-29T18:56:58.288Z,97648.27
2019-01-29T18:59:28.155Z,97651.46
2019-01-29T19:01:57.294Z,97648.92
2019-01-29T19:04:28.768Z,97651.70
2019-01-29T19:06:58.292Z,97640.44
2019-01-29T19:09:27.655Z,97639.59
2019-01-29T19:11:57.056Z,97637.53
2019-01-29T19:14:27.547Z,97634.09
2019-01-29T19:17:01.544Z,97633.07
2019-01-29T19:19:31.386Z,97633.75
2019-01-29T19:22:00.871Z,97631.02
2019-01-29T19:24:30.140Z,97631.70
2019-01-29T19:26:59.320Z,97622.41
2019-01-29T19:29:30.668Z,97618.45
2019-01-29T19:32:00.703Z,97618.84
2019-01-29T19:34:30.050Z,97612.61
2019-01-29T19:36:59.515Z,97615.28
2019-01-29T19:39:28.725Z,97611.53
2019-01-29T19:41:57.915Z,97602.55
2019-01-29T19:44:27.117Z,97607.30
2019-01-29T19:46:56.653Z,97603.62
2019-01-29T19:49:26.194Z,97596.44
2019-01-29T19:51:57.460Z,97591.44
2019-01-29T19:54:28.150Z,97588.91
2019-01-29T19:56:57.759Z,97588.91
2019-01-29T19:59:27.212Z,97588.75
2019-01-29T20:01:57.489Z,97587.14
2019-01-29T20:04:26.643Z,97587.45
2019-01-29T20:06:55.836Z,97580.27
2019-01-29T20:09:25.454Z,97577.50
2019-01-29T20:11:54.985Z,97583.98
2019-01-29T20:14:24.349Z,97576.95
2019-01-29T20:16:53.550Z,97572.33
2019-01-29T20:19:22.845Z,97575.93
2019-01-29T20:21:52.038Z,97568.13
2019-01-29T20:24:21.632Z,97563.58
2019-01-29T20:26:50.901Z,97562.44
2019-01-29T20:29:20.546Z,97563.28
2019-01-29T20:31:50.548Z,97566.88
2019-01-29T20:34:21.744Z,97565.88
2019-01-29T20:36:51.840Z,97561.75
2019-01-29T20:39:21.017Z,97559.37
2019-01-29T20:41:51.984Z,97558.15
2019-01-29T20:44:21.113Z,97557.23
2019-01-29T20:46:50.406Z,97547.81
2019-01-29T20:49:19.780Z,97552.72
2019-01-29T20:51:50.278Z,97545.58
2019-01-29T20:54:22.074Z,97541.59
2019-01-29T20:56:52.086Z,97535.16
2019-01-29T20:59:21.273Z,97528.33
2019-01-29T21:01:51.236Z,97519.77
2019-01-29T21:04:22.105Z,97523.02
2019-01-29T21:06:51.264Z,97520.69
2019-01-29T21:09:20.510Z,97517.28
2019-01-29T21:11:50.522Z,97515.30
2019-01-29T21:14:25.478Z,97506.95
2019-01-29T21:16:55.465Z,97504.64
2019-01-29T21:19:24.871Z,97505.17
2019-01-29T21:21:54.047Z,97499.59
2019-01-29T21:24:23.271Z,97510.34
2019-01-29T21:26:52.941Z,97499.64
2019-01-29T21:29:22.149Z,97493.52
2019-01-29T21:31:51.350Z,97493.16
2019-01-29T21:34:22.007Z,97489.19
2019-01-29T21:36:52.265Z,97483.45
2019-01-29T21:39:21.873Z,97486.33
2019-01-29T21:41:52.499Z,97483.86
2019-01-29T21:44:21.790Z,97481.84
2019-01-29T21:46:50.982Z,97481.18
2019-01-29T21:49:20.501Z,97465.04
2019-01-29T21:51:50.031Z,97467.72
2019-01-29T21:54:20.262Z,97461.36
2019-01-29T21:56:49.908Z,97462.84
2019-01-29T21:59:19.175Z,97464.75
2019-01-29T22:01:48.552Z,97459.94
2019-01-29T22:04:17.749Z,97460.98
2019-01-29T22:06:46.934Z,97454.95
2019-01-29T22:09:17.212Z,97448.45
2019-01-29T22:11:46.361Z,97445.61
2019-01-29T22:14:15.541Z,97449.53
2019-01-29T22:16:44.724Z,97447.21
2019-01-29T22:19:13.928Z,97437.56
2019-01-29T22:21:43.075Z,97436.64
2019-01-29T22:24:12.293Z,97434.57
2019-01-29T22:26:41.760Z,97435.73
2019-01-29T22:29:10.931Z,97425.63
2019-01-29T22:31:41.037Z,97427.23
2019-01-29T22:34:10.307Z,97428.53
2019-01-29T22:36:39.652Z,97426.19
2019-01-29T22:39:09.374Z,97422.28
2019-01-29T22:41:39.954Z,97417.98
2019-01-29T22:44:09.206Z,97411.38
2019-01-29T22:46:38.410Z,97414.97
2019-01-29T22:49:08.031Z,97408.56
2019-01-29T22:51:37.510Z,97412.24
2019-01-29T22:54:08.140Z,97405.36
2019-01-29T22:56:37.303Z,97401.97
2019-01-29T22:59:07.327Z,97398.70
2019-01-29T23:01:39.455Z,97397.11
2019-01-29T23:04:12.842Z,97385.91
2019-01-29T23:07:08.861Z,97385.16
2019-01-29T23:09:38.048Z,97377.27
2019-01-29T23:12:07.428Z,97383.95
2019-01-29T23:14:36.642Z,97370.19
2019-01-29T23:17:05.898Z,97371.16
2019-01-29T23:19:35.391Z,97367.66
2019-01-29T23:22:04.600Z,97363.67
2019-01-29T23:24:33.759Z,97364.60
2019-01-29T23:27:02.939Z,97357.84
2019-01-29T23:29:42.967Z,97349.58
2019-01-29T23:32:03.781Z,97345.00
2019-01-29T23:34:32.955Z,97343.03
2019-01-29T23:37:02.943Z,97340.81
2019-01-29T23:39:33.060Z,97332.47
2019-01-29T23:42:02.261Z,97327.80
2019-01-29T23:44:32.488Z,97327.56
2019-01-29T23:47:02.737Z,97320.30
2019-01-29T23:49:32.175Z,97311.11
2019-01-29T23:52:01.385Z,97315.02
2019-01-29T23:54:30.897Z,97308.13
2019-01-29T23:57:00.103Z,97305.16
2019-01-29T23:59:29.260Z,97295.52
